Extreme weather reports worldwide

Lowest temperatures

Station
 
Location
 
Name
 
Wind
Knots
Gust
Knots
Vis
SM
Temp/Dew
C
Baro
inHg
METAR
 
NZSP AQ South Pole Station Airport 18 26 0.99 -52/ 27.98 NZSP 211750Z 01018G26KT 1600 BLSN FEW000 FEW100 M52/ A2798 RMK PK WND 02026/50 BLSN FEW000 CLN AIR 03012KT ALL WNDS GRID SDG/HDP
YDA CYDA Dawson City, CA Dawson City Airport 2 20 -21/-23 30.74 CYDA 211800Z VRB02KT 20SM FEW010 SCT085 M21/M23 A3074 RMK ST2AC2 SLP456
YMA CYMA Mayo, CA Mayo Airport 2 20 -18/-20 30.67 CYMA 211800Z VRB02KT 20SM FEW004 FEW040 SCT120 BKN220 M18/M20 A3067 RMK ST1SC1AC2CI2 CLIMAT -18.0/-21.3/0.0 SLP448
EAA PAEG Eagle, US Eagle Airport 0 10 -18/-21 30.73 PAEG 211753Z AUTO 00000KT 10SM OVC007 M19/M21 A3073 RMK AO2 SLP431 I1000 I6000 T11891211 11189 21222 53008 TSNO
GDX UHMM Magadan, RU Sokol Airport 2 6.21 -17/-19 30.15 UHMM 211800Z 23001MPS 9999 NSC M17/M19 Q1021 RMK QFE751 R28/09003MPS

Station
 
Location
 
Name
 
Wind
Knots
Gust
Knots
Vis
SM
Temp/Dew
C
Baro
inHg
METAR
 
ZFA CZFA Faro, CA Faro Airport 2 30 -17/-20 30.58 CZFA 211800Z VRB02KT 30SM SKC M17/M20 A3058 RMK SLP428
YRB CYRB Resolute Bay, CA Resolute Bay Airport 25 15 -16/-20 29.82 CYRB 211800Z 03025KT 15SM FEW046 M16/M20 A2982 RMK SC1 SC TR SLP110
YXQ CYXQ Beaver Creek, CA Beaver Creek Airport 4 30 -15/-17 30.63 CYXQ 211800Z 17004KT 30SM -SN FEW015 BKN025 OVC120 M15/M17 A3063 RMK ST2SC5AC1 /PCPN VRY LGT/ SLP434
CXRB 19 -15/-19 CXRB 211800Z AUTO 04019KT M16/M19 RMK AO1 SOG 10 0003 PK WND 04023/1754 SLP111 T11571190
CWEU 6 7 -15/-17 29.76 CWEU 211800Z 36006KT 7SM -SN OVC005 M15/M17 A2976 RMK ST8 SLP092
AKP PAKP Anaktuvuk Pass, US Anaktuvuk Pass Airport 14 0.75 -13/-14 30.53 PAKP 211808Z AUTO 18014KT 3/4SM -SN BR FEW002 BKN100 M13/M14 A3053 RMK AO2 P0000 FZRANO
ZFM CZFM Fort Mcpherson, CA Fort Mcpherson Airport 2 35 -13/-15 30.66 CZFM 211800Z 15002KT 35SM FEW080 FEW210 M13/M15 A3066 RMK AC1CS1 S10.0MM SNWCVR/MUCH LOOSE SLP388
ULN ZMUB Ulan Bator, MN Buyant-Ukhaa International Airport 4 6.21 -12/-14 30.24 ZMUB 211800Z VRB02MPS CAVOK M12/M14 Q1024 NOSIG RMK QFE659.7 82
YQH CYQH Watson Lake, CA Watson Lake Airport 5 30 -12/-15 30.48 CYQH 211800Z 33005KT 30SM BKN062 OVC075 M12/M15 A3048 RMK SC7AC1 CLIMAT -10.9/-12.4/TRCM/TRMM MWE/44004 SLP381
YOC CYOC Old Crow, CA Old Crow Airport 9 25 -11/-13 30.68 CYOC 211800Z 26009KT 25SM BKN013 BKN042 M11/M13 A3068 RMK ST6SC1 VIS NW 3 SF ASOCTD SLP419
YLT CYLT Alert, CA Alert Airport 16 3 -11/-12 29.76 CYLT 211800Z 30016KT 3SM -SN DRSN BKN013 OVC018 M11/M12 A2976 RMK ST7SC1 VIS VRB 2 1/4-4 SLP084
YDB CYDB Burwash, CA Burwash Airport 4 30 -11/-16 30.58 CYDB 211800Z 30004KT 30SM FEW040 SCT200 M11/M16 A3058 RMK CF1CI3 CF TR SLP424
YCB CYCB Cambridge Bay, CA Cambridge Bay Airport 12 19 10 -11/-13 29.98 CYCB 211800Z 36012G19KT 10SM DRSN FEW012 SCT042 BKN076 M11/M13 A2998 RMK SC1SC2AC3 SLP156
CXCK 4 -11/-13 CXCK 211800Z AUTO 33004KT M12/M13 RMK AO1 SLP433 T11151134 53013
CWPX 33 -11/-13 29.97 CWPX 211800Z AUTO 35033KT ////SM //// FEW003 OVC085 M11/M13 A2997
ORT PAOR Northway, US Northway Airport 0 10 -11/-13 30.65 PAOR 211753Z 00000KT 10SM BKN006 OVC013 M11/M13 A3065 RMK AO2 SLP433 4/003 T11111133 11111 21167 53007
YKS UEEE Yakutsk, RU Yakutsk Airport 2 6.21 -10/-11 29.88 UEEE 211800Z 25001MPS 9999 -SHSN BKN030CB M10/M11 Q1012 R23L/490149 NOSIG RMK QFE750
LAK CYKD Aklavik, CA Aklavik/Freddie Carmichael Airport 2 15 -10/-11 30.65 CYKD 211800Z VRB02KT 15SM FEW140 BKN240 M10/M11 A3065 RMK AC2CI4 SLP381
CXPA 14 -10/-12 CXPA 211800Z AUTO 33014KT M10/M13 RMK AO1 PK WND 32020/1723 T11001126
FRN PAFR Fort Richardson(Anchorage), US Bryant Army Heliport 0 10 -10/-11 30.51 PAFR 211758Z AUTO 00000KT 10SM CLR M10/M11 A3051 RMK AO2 SLP345 T11011114 11086 21108 50009 $
KAL PAKV Kaltag, US Kaltag Airport 3 10 -10/-11 30.75 PAKV 211753Z AUTO 24003KT 10SM CLR M10/M12 A3075 RMK AO2 SLP417 I1000 I6000 T11001117 11067 21111 53001 TSNO $
GKN PAGK Gulkana, US Gulkana Airport 0 10 -10/-13 30.57 PAGK 211753Z AUTO 00000KT 10SM CLR M10/M14 A3057 RMK AO2 SLP396 T11001139 11061 21100 53010 TSNO
MMK ULMM Murmansk, RU Murmansk Airport 4 0.34 -9/-10 29.97 ULMM 211800Z 15002MPS 0550 0500SW PRFG BKN001 M09/M10 Q1015 R13/690054 TEMPO 0300 FZFG RMK QBB050 OBST OBSC QFE755
YXY CYXY Whitehorse, CA Whitehorse / Erik Nielsen International Airport 7 40 -9/-14 30.56 CYXY 211800Z 34007KT 40SM -SN SCT025 BKN220 M09/M14 A3056 RMK SC4CI1 SLP407
YXJ CYXJ Fort St.John, CA Fort St John Airport 14 15 -9/-14 30.40 CYXJ 211800Z 35014KT 15SM SCT026 BKN050 BKN100 M09/M14 A3040 RMK SC4SC2AC1 VIRGA SLP346
CYUA 24 31 -9/-11 30.59 CYUA 211800Z AUTO 20024G31KT ////SM NCD M09/M11 A3059
YPE CYPE Peace River, CA Peace River Airport 15 15 -9/-14 30.35 CYPE 211800Z CCA 32015KT 15SM -SN OVC027 M09/M14 A3035 RMK SC8 SLP322
CXFR 8 -9/-14 CXFR 211800Z AUTO 34008KT M10/M15 RMK AO1 T10951147
CXCD 6 -9/-13 CXCD 211800Z AUTO 01006KT M09/M14 RMK AO1 T10901138
BTI PABA Barter Island Lrrs, US Barter Island LRRS Airport 8 10 -9/-11 30.56 PABA 211752Z AUTO 23008KT 10SM CLR M09/M11 A3056 RMK AO2 SLP356 T10941111 11044 21094 53002 FZRANO
YDQ CYDQ Dawson Creek, CA Dawson Creek Airport 6 9 -8/-12 30.41 CYDQ 211804Z AUTO 36006KT 330V030 9SM -SN OVC023 M08/M12 A3041 RMK SLP346
YZW CYZW Teslin, CA Teslin Airport 4 30 -8/-15 30.51 CYZW 211800Z 06004KT 040V120 30SM SCT038 M08/M15 A3051 RMK SC3 SLP388
YQU CYQU Grande Prairie, CA Grande Prairie Airport 10 12 -8/-11 30.36 CYQU 211800Z 30010KT 12SM BKN055 M08/M11 A3036 RMK SC6 SLP327
YJF CYJF Fort Liard, CA Fort Liard Airport 4 10 -8/-10 30.56 CYJF 211800Z 21004KT 10SM BKN036 BKN053 BKN076 M08/M10 A3056 RMK SC5SC1AC2 DIST BR ALQDS SLP369
YEV CYEV Inuvik, CA Inuvik Mike Zubko Airport 0 15 -8/-10 30.63 CYEV 211800Z 00000KT 15SM FEW010 FEW060 BKN120 BKN230 M08/M10 A3063 RMK ST1SC1AC3CI1 SLP383
YET CYET Edson, CA Edson Airport 8 15 9 -8/-11 30.24 CYET 211800Z AUTO 31008G15KT 9SM -SN FEW019 BKN027 OVC050 M08/M11 A3024 RMK SLP296
CXHP 9 -8/-11 CXHP 211800Z AUTO 32009KT M08/M12 RMK AO1 T10811119
CWZW 3 -8/-16 CWZW 211800Z AUTO 12003KT M08/M16 RMK AO1 SLP389 T10841160 51018
FYU PFYU Fort Yukon, US Fort Yukon Airport 0 6 -8/-9 30.72 PFYU 211756Z 00000KT 6SM BR OVC013 M08/M09 A3072 RMK AO2 SNE54 SLP423 P0000 60000 T10831094 11083 21089 51004
PAZK 3 10 -8/-11 30.48 PAZK 211756Z AUTO 33003KT 10SM CLR M09/M11 A3048 RMK AO2 SLP397 T10891111 11089 21111 51008 FZRANO
SXQ PASX Soldotna, US Soldotna Airport 0 10 -8/-10 30.60 PASX 211756Z AUTO 00000KT 10SM CLR M09/M10 A3060 RMK AO2 SLP371 T10891100 11078 21100 52005 FZRANO
HSL PAHL Huslia, US Huslia Airport 0 10 -7/-8 30.71 PAHL 211807Z AUTO 00000KT 10SM BKN025 OVC055 M07/M08 A3071 RMK AO2 FZRANO
YDL CYDL Dease Lake, CA Dease Lake Airport 5 9 -7/-12 30.37 CYDL 211802Z AUTO 02005KT 320V070 9SM SCT047 OVC075 M07/M12 A3037 RMK SLP327
CZZJ 8 -7/-11 CZZJ 211800Z AUTO 32008KT M08/M12 RMK AO1 SOG 09 1036 SLP294 T10771119 50003
CZEV 3 -7/-10 CZEV 211800Z AUTO 22003KT M08/M10 RMK AO1 SOG 06 2004 SLP385 T10791102